Time,TemperatureF,DewpointF,PressureIn,WindDirection,WindDirectionDegrees,WindSpeedMPH,WindSpeedGustMPH,Humidity,HourlyPrecipIn,Conditions,Clouds,dailyrainin,SolarRadiationWatts/m^2,SoftwareType,DateUTC
2013-02-14 00:01:00,19.0,18.0,-100.00,North,353,4.0,8.0,94,0.00,,,0.00,0.000000,,2013-02-14 09:01:00,
2013-02-14 00:11:00,19.0,18.0,-100.00,North,353,4.0,8.0,94,0.00,,,0.00,0.000000,,2013-02-14 09:11:00,
2013-02-14 00:21:00,19.0,18.0,-100.00,North,353,4.0,8.0,94,0.00,,,0.00,0.000000,,2013-02-14 09:21:00,
2013-02-14 00:31:00,19.0,18.0,-100.00,North,353,4.0,8.0,94,0.00,,,0.00,0.000000,,2013-02-14 09:31:00,
2013-02-14 00:52:00,20.0,18.0,-100.00,NW,305,5.0,10.0,93,0.00,,,0.00,0.000000,,2013-02-14 09:52:00,
2013-02-14 01:02:00,20.0,18.0,-100.00,NW,305,5.0,10.0,93,0.00,,,0.00,0.000000,,2013-02-14 10:02:00,
2013-02-14 01:11:00,20.0,18.0,-100.00,NW,305,5.0,10.0,93,0.00,,,0.00,0.000000,,2013-02-14 10:11:00,
2013-02-14 01:21:00,20.0,18.0,-100.00,NW,305,5.0,10.0,93,0.00,,,0.00,0.000000,,2013-02-14 10:21:00,
2013-02-14 01:31:00,20.0,18.0,-100.00,NW,305,5.0,10.0,93,0.00,,,0.00,0.000000,,2013-02-14 10:31:00,
2013-02-14 01:52:00,20.0,18.0,-100.00,NW,319,5.0,9.0,93,0.00,,,0.00,0.000000,,2013-02-14 10:52:00,
2013-02-14 02:01:00,20.0,18.0,-100.00,NW,319,5.0,9.0,93,0.00,,,0.00,0.000000,,2013-02-14 11:01:00,
2013-02-14 02:11:00,20.0,18.0,-100.00,NW,319,5.0,9.0,93,0.00,,,0.00,0.000000,,2013-02-14 11:11:00,
2013-02-14 02:21:00,20.0,18.0,-100.00,NW,319,5.0,9.0,93,0.00,,,0.00,0.000000,,2013-02-14 11:21:00,
2013-02-14 02:31:00,20.0,18.0,-100.00,NW,319,5.0,9.0,93,0.00,,,0.00,0.000000,,2013-02-14 11:31:00,
2013-02-14 02:52:00,21.0,20.0,-100.00,NW,317,4.0,8.0,94,0.00,,,-99.99,0.000000,,2013-02-14 11:52:00,
2013-02-14 03:01:00,21.0,20.0,-100.00,NW,317,4.0,8.0,94,0.00,,,-99.99,0.000000,,2013-02-14 12:01:00,
2013-02-14 03:11:00,21.0,20.0,-100.00,NW,317,4.0,8.0,94,0.00,,,-99.99,0.000000,,2013-02-14 12:11:00,
2013-02-14 03:22:00,21.0,20.0,-100.00,NW,317,4.0,8.0,94,0.00,,,-99.99,0.000000,,2013-02-14 12:22:00,
2013-02-14 03:31:00,21.0,20.0,-100.00,NW,317,4.0,8.0,94,0.00,,,-99.99,0.000000,,2013-02-14 12:31:00,
2013-02-14 03:53:00,22.0,21.0,-100.00,NNW,335,4.0,8.0,94,0.00,,,0.00,0.000000,,2013-02-14 12:53:00,
2013-02-14 04:01:00,22.0,21.0,-100.00,NNW,335,4.0,8.0,94,0.00,,,0.00,0.000000,,2013-02-14 13:01:00,
2013-02-14 04:11:00,22.0,21.0,-100.00,NNW,335,4.0,8.0,94,0.00,,,0.00,0.000000,,2013-02-14 13:11:00,
2013-02-14 04:21:00,22.0,21.0,-100.00,NNW,335,4.0,8.0,94,0.00,,,0.00,0.000000,,2013-02-14 13:21:00,
2013-02-14 04:31:00,22.0,21.0,-100.00,NNW,335,4.0,8.0,94,0.00,,,0.00,0.000000,,2013-02-14 13:31:00,
2013-02-14 04:51:00,24.0,23.0,-100.00,NW,325,4.0,10.0,95,0.00,,,0.00,0.000000,,2013-02-14 13:51:00,
2013-02-14 05:01:00,24.0,23.0,-100.00,NW,325,4.0,10.0,95,0.00,,,0.00,0.000000,,2013-02-14 14:01:00,
2013-02-14 05:11:00,24.0,23.0,-100.00,NW,325,4.0,10.0,95,0.00,,,0.00,0.000000,,2013-02-14 14:11:00,
2013-02-14 05:21:00,24.0,23.0,-100.00,NW,325,4.0,10.0,95,0.00,,,0.00,0.000000,,2013-02-14 14:21:00,
2013-02-14 05:31:00,24.0,23.0,-100.00,NW,325,4.0,10.0,95,0.00,,,0.00,0.000000,,2013-02-14 14:31:00,
2013-02-14 05:52:00,25.0,24.0,-100.00,North,7,6.0,12.0,96,0.00,,,0.00,0.000000,,2013-02-14 14:52:00,
2013-02-14 06:01:00,25.0,24.0,-100.00,North,7,6.0,12.0,96,0.00,,,0.00,0.000000,,2013-02-14 15:01:00,
2013-02-14 06:11:00,25.0,24.0,-100.00,North,7,6.0,12.0,96,0.00,,,0.00,0.000000,,2013-02-14 15:11:00,
2013-02-14 06:21:00,25.0,24.0,-100.00,North,7,6.0,12.0,96,0.00,,,0.00,0.000000,,2013-02-14 15:21:00,
2013-02-14 06:31:00,25.0,24.0,-100.00,North,7,6.0,12.0,96,0.00,,,0.00,0.000000,,2013-02-14 15:31:00,
2013-02-14 06:52:00,26.0,25.0,-100.00,NNW,340,5.0,10.0,95,0.00,,,0.00,0.000000,,2013-02-14 15:52:00,
2013-02-14 07:01:00,26.0,25.0,-100.00,NNW,340,5.0,10.0,95,0.00,,,0.00,0.000000,,2013-02-14 16:01:00,
2013-02-14 07:11:00,26.0,25.0,-100.00,NNW,340,5.0,10.0,95,0.00,,,0.00,0.000000,,2013-02-14 16:11:00,
2013-02-14 07:21:00,26.0,25.0,-100.00,NNW,340,5.0,10.0,95,0.00,,,0.00,0.000000,,2013-02-14 16:21:00,
2013-02-14 07:31:00,26.0,25.0,-100.00,NNW,340,5.0,10.0,95,0.00,,,0.00,0.000000,,2013-02-14 16:31:00,
2013-02-14 07:52:00,27.0,26.0,-100.00,NW,311,4.0,8.0,94,0.00,,,0.00,0.000000,,2013-02-14 16:52:00,
2013-02-14 08:01:00,27.0,26.0,-100.00,NW,311,4.0,8.0,94,0.00,,,0.00,0.000000,,2013-02-14 17:01:00,
2013-02-14 08:21:00,27.0,26.0,-100.00,NW,311,4.0,8.0,94,0.00,,,0.00,0.000000,,2013-02-14 17:21:00,
2013-02-14 08:31:00,27.0,26.0,-100.00,NW,311,4.0,8.0,94,0.00,,,0.00,0.000000,,2013-02-14 17:31:00,
2013-02-14 08:52:00,27.0,26.0,-100.00,NW,311,4.0,9.0,94,0.00,,,0.00,0.000000,,2013-02-14 17:52:00,
2013-02-14 09:01:00,27.0,26.0,-100.00,NW,311,4.0,9.0,94,0.00,,,0.00,0.000000,,2013-02-14 18:01:00,
2013-02-14 09:52:00,28.0,27.0,-100.00,NW,308,7.0,13.0,94,0.00,,,0.00,15.000000,,2013-02-14 18:52:00,
2013-02-14 10:02:00,28.0,27.0,-100.00,NW,308,7.0,13.0,94,0.00,,,0.00,15.000000,,2013-02-14 19:02:00,
2013-02-14 10:52:00,29.0,28.0,-100.00,WNW,302,10.0,18.0,95,0.00,,,0.00,52.000000,,2013-02-14 19:52:00,
2013-02-14 11:01:00,29.0,28.0,-100.00,WNW,302,10.0,18.0,95,0.00,,,0.00,52.000000,,2013-02-14 20:01:00,
2013-02-14 11:21:00,29.0,28.0,-100.00,WNW,302,10.0,18.0,95,0.00,,,0.00,52.000000,,2013-02-14 20:21:00,
2013-02-14 11:31:00,29.0,28.0,-100.00,WNW,302,10.0,18.0,95,0.00,,,0.00,52.000000,,2013-02-14 20:31:00,
2013-02-14 11:52:00,30.0,28.0,-100.00,NW,309,7.0,12.0,93,0.00,,,0.00,87.000000,,2013-02-14 20:52:00,
2013-02-14 12:02:00,30.0,28.0,-100.00,NW,309,7.0,12.0,93,0.00,,,0.00,87.000000,,2013-02-14 21:02:00,
2013-02-14 12:52:00,29.0,27.0,-100.00,NW,304,6.0,9.0,93,0.00,,,0.00,86.000000,,2013-02-14 21:52:00,
2013-02-14 13:02:00,29.0,27.0,-100.00,NW,304,6.0,9.0,93,0.00,,,0.00,86.000000,,2013-02-14 22:02:00,
2013-02-14 13:21:00,29.0,27.0,-100.00,NW,304,6.0,9.0,93,0.00,,,0.00,86.000000,,2013-02-14 22:21:00,
2013-02-14 13:31:00,29.0,27.0,-100.00,NW,304,6.0,9.0,93,0.00,,,0.00,86.000000,,2013-02-14 22:31:00,
2013-02-14 13:52:00,26.0,25.0,-100.00,North,349,6.0,12.0,95,0.00,,,0.00,194.000000,,2013-02-14 22:52:00,
2013-02-14 14:01:00,26.0,25.0,-100.00,North,349,6.0,12.0,95,0.00,,,0.00,194.000000,,2013-02-14 23:01:00,
2013-02-14 14:11:00,26.0,25.0,-100.00,North,349,6.0,12.0,95,0.00,,,0.00,194.000000,,2013-02-14 23:11:00,
2013-02-14 14:21:00,26.0,25.0,-100.00,North,349,6.0,12.0,95,0.00,,,0.00,194.000000,,2013-02-14 23:21:00,
2013-02-14 14:31:00,26.0,25.0,-100.00,North,349,6.0,12.0,95,0.00,,,0.00,194.000000,,2013-02-14 23:31:00,
2013-02-14 14:52:00,28.0,26.0,-100.00,ENE,59,8.0,24.0,93,0.00,,,0.00,119.000000,,2013-02-14 23:52:00,
2013-02-14 15:01:00,28.0,26.0,-100.00,ENE,59,8.0,24.0,93,0.00,,,0.00,119.000000,,2013-02-15 00:01:00,
2013-02-14 15:11:00,28.0,26.0,-100.00,ENE,59,8.0,24.0,93,0.00,,,0.00,119.000000,,2013-02-15 00:11:00,
2013-02-14 15:21:00,28.0,26.0,-100.00,ENE,59,8.0,24.0,93,0.00,,,0.00,119.000000,,2013-02-15 00:21:00,
2013-02-14 15:31:00,28.0,26.0,-100.00,ENE,59,8.0,24.0,93,0.00,,,0.00,119.000000,,2013-02-15 00:31:00,
2013-02-14 15:52:00,29.0,27.0,-100.00,SW,216,5.0,14.0,92,0.00,,,0.00,49.000000,,2013-02-15 00:52:00,
2013-02-14 16:01:00,29.0,27.0,-100.00,SW,216,5.0,14.0,92,0.00,,,0.00,49.000000,,2013-02-15 01:01:00,
2013-02-14 16:52:00,27.0,26.0,-100.00,SW,215,4.0,9.0,96,0.00,,,0.00,33.000000,,2013-02-15 01:52:00,
2013-02-14 17:01:00,27.0,26.0,-100.00,SW,215,4.0,9.0,96,0.00,,,0.00,33.000000,,2013-02-15 02:01:00,
2013-02-14 17:11:00,27.0,26.0,-100.00,SW,215,4.0,9.0,96,0.00,,,0.00,33.000000,,2013-02-15 02:11:00,
2013-02-14 17:21:00,27.0,26.0,-100.00,SW,215,4.0,9.0,96,0.00,,,0.00,33.000000,,2013-02-15 02:21:00,
2013-02-14 17:31:00,27.0,26.0,-100.00,SW,215,4.0,9.0,96,0.00,,,0.00,33.000000,,2013-02-15 02:31:00,
2013-02-14 17:52:00,27.0,26.0,-100.00,WSW,238,6.0,12.0,96,0.00,,,0.00,5.000000,,2013-02-15 02:52:00,
2013-02-14 18:02:00,27.0,26.0,-100.00,WSW,238,6.0,12.0,96,0.00,,,0.00,5.000000,,2013-02-15 03:02:00,
2013-02-14 18:11:00,27.0,26.0,-100.00,WSW,238,6.0,12.0,96,0.00,,,0.00,5.000000,,2013-02-15 03:11:00,
2013-02-14 18:21:00,27.0,26.0,-100.00,WSW,238,6.0,12.0,96,0.00,,,0.00,5.000000,,2013-02-15 03:21:00,
2013-02-14 18:31:00,27.0,26.0,-100.00,WSW,238,6.0,12.0,96,0.00,,,0.00,5.000000,,2013-02-15 03:31:00,
2013-02-14 18:52:00,27.0,26.0,-100.00,NNW,343,6.0,16.0,96,0.00,,,0.00,0.000000,,2013-02-15 03:52:00,
2013-02-14 19:01:00,27.0,26.0,-100.00,NNW,343,6.0,16.0,96,0.00,,,0.00,0.000000,,2013-02-15 04:01:00,
2013-02-14 19:31:00,27.0,26.0,-100.00,NNW,343,6.0,16.0,96,0.00,,,0.00,0.000000,,2013-02-15 04:31:00,
2013-02-14 19:52:00,26.0,25.0,-100.00,SW,221,9.0,18.0,97,0.00,,,0.00,0.000000,,2013-02-15 04:52:00,
2013-02-14 20:02:00,26.0,25.0,-100.00,SW,221,9.0,18.0,97,0.00,,,0.00,0.000000,,2013-02-15 05:02:00,
2013-02-14 20:11:00,26.0,25.0,-100.00,SW,221,9.0,18.0,97,0.00,,,0.00,0.000000,,2013-02-15 05:11:00,
2013-02-14 20:22:00,26.0,25.0,-100.00,SW,221,9.0,18.0,97,0.00,,,0.00,0.000000,,2013-02-15 05:22:00,
2013-02-14 20:32:00,26.0,25.0,-100.00,SW,221,9.0,18.0,97,0.00,,,0.00,0.000000,,2013-02-15 05:32:00,
2013-02-14 20:52:00,26.0,25.0,-100.00,ESE,102,7.0,20.0,97,0.00,,,0.00,0.000000,,2013-02-15 05:52:00,
2013-02-14 21:02:00,26.0,25.0,-100.00,ESE,102,7.0,20.0,97,0.00,,,0.00,0.000000,,2013-02-15 06:02:00,
2013-02-14 21:11:00,26.0,25.0,-100.00,ESE,102,7.0,20.0,97,0.00,,,0.00,0.000000,,2013-02-15 06:11:00,
2013-02-14 21:21:00,26.0,25.0,-100.00,ESE,102,7.0,20.0,97,0.00,,,0.00,0.000000,,2013-02-15 06:21:00,
2013-02-14 21:31:00,26.0,25.0,-100.00,ESE,102,7.0,20.0,97,0.00,,,0.00,0.000000,,2013-02-15 06:31:00,
2013-02-14 21:52:00,26.0,25.0,-100.00,ESE,105,6.0,12.0,97,0.00,,,-99.99,0.000000,,2013-02-15 06:52:00,
2013-02-14 22:01:00,26.0,25.0,-100.00,ESE,105,6.0,12.0,97,0.00,,,-99.99,0.000000,,2013-02-15 07:01:00,
2013-02-14 22:11:00,26.0,25.0,-100.00,ESE,105,6.0,12.0,97,0.00,,,-99.99,0.000000,,2013-02-15 07:11:00,
2013-02-14 22:21:00,26.0,25.0,-100.00,ESE,105,6.0,12.0,97,0.00,,,-99.99,0.000000,,2013-02-15 07:21:00,
2013-02-14 22:31:00,26.0,25.0,-100.00,ESE,105,6.0,12.0,97,0.00,,,-99.99,0.000000,,2013-02-15 07:31:00,
2013-02-14 22:52:00,26.0,25.0,-100.00,NE,50,10.0,21.0,97,0.00,,,0.00,0.000000,,2013-02-15 07:52:00,
2013-02-14 23:01:00,26.0,25.0,-100.00,NE,50,10.0,21.0,97,0.00,,,0.00,0.000000,,2013-02-15 08:01:00,
2013-02-14 23:11:00,26.0,25.0,-100.00,NE,50,10.0,21.0,97,0.00,,,0.00,0.000000,,2013-02-15 08:11:00,
2013-02-14 23:21:00,26.0,25.0,-100.00,NE,50,10.0,21.0,97,0.00,,,0.00,0.000000,,2013-02-15 08:21:00,
2013-02-14 23:31:00,26.0,25.0,-100.00,NE,50,10.0,21.0,97,0.00,,,0.00,0.000000,,2013-02-15 08:31:00,
2013-02-14 23:53:00,26.0,25.0,-100.00,NE,49,9.0,21.0,97,0.00,,,0.00,0.000000,,2013-02-15 08:53:00,